sensor_id;sensor_type;location;lat;lon;timestamp;P1;durP1;ratioP1;P2;durP2;ratioP2
57856;SDS011;43683;48.650;9.290;2023-03-01T00:02:11;14.38;;;8.27;;
57856;SDS011;43683;48.650;9.290;2023-03-01T00:04:37;13.73;;;8.75;;
57856;SDS011;43683;48.650;9.290;2023-03-01T00:07:02;13.40;;;8.80;;
57856;SDS011;43683;48.650;9.290;2023-03-01T00:09:28;12.43;;;7.95;;
57856;SDS011;43683;48.650;9.290;2023-03-01T00:11:53;11.95;;;8.55;;
57856;SDS011;43683;48.650;9.290;2023-03-01T00:14:19;12.80;;;8.38;;
57856;SDS011;43683;48.650;9.290;2023-03-01T00:16:44;14.90;;;8.80;;
57856;SDS011;43683;48.650;9.290;2023-03-01T00:19:12;13.02;;;8.35;;
57856;SDS011;43683;48.650;9.290;2023-03-01T00:21:39;16.48;;;8.63;;
57856;SDS011;43683;48.650;9.290;2023-03-01T00:24:05;14.73;;;8.52;;
57856;SDS011;43683;48.650;9.290;2023-03-01T00:26:31;15.70;;;8.55;;
57856;SDS011;43683;48.650;9.290;2023-03-01T00:28:57;14.38;;;8.82;;
57856;SDS011;43683;48.650;9.290;2023-03-01T00:31:25;14.10;;;8.73;;
57856;SDS011;43683;48.650;9.290;2023-03-01T00:33:53;15.25;;;8.30;;
57856;SDS011;43683;48.650;9.290;2023-03-01T00:36:22;14.55;;;8.32;;
57856;SDS011;43683;48.650;9.290;2023-03-01T00:38:50;14.88;;;8.32;;
57856;SDS011;43683;48.650;9.290;2023-03-01T00:41:16;19.15;;;8.98;;
57856;SDS011;43683;48.650;9.290;2023-03-01T00:43:44;18.88;;;9.45;;
57856;SDS011;43683;48.650;9.290;2023-03-01T00:46:15;12.77;;;8.02;;
57856;SDS011;43683;48.650;9.290;2023-03-01T00:48:44;15.35;;;8.88;;
57856;SDS011;43683;48.650;9.290;2023-03-01T00:51:11;17.83;;;9.75;;
57856;SDS011;43683;48.650;9.290;2023-03-01T00:53:38;15.57;;;8.95;;
57856;SDS011;43683;48.650;9.290;2023-03-01T00:56:05;13.15;;;8.43;;
57856;SDS011;43683;48.650;9.290;2023-03-01T00:58:32;12.13;;;8.55;;
57856;SDS011;43683;48.650;9.290;2023-03-01T01:00:58;17.77;;;8.48;;
57856;SDS011;43683;48.650;9.290;2023-03-01T01:03:24;18.90;;;9.60;;
57856;SDS011;43683;48.650;9.290;2023-03-01T01:05:50;16.08;;;8.80;;
57856;SDS011;43683;48.650;9.290;2023-03-01T01:08:17;14.52;;;8.82;;
57856;SDS011;43683;48.650;9.290;2023-03-01T01:10:43;15.93;;;8.23;;
57856;SDS011;43683;48.650;9.290;2023-03-01T01:13:10;16.55;;;9.93;;
57856;SDS011;43683;48.650;9.290;2023-03-01T01:15:36;16.05;;;9.63;;
57856;SDS011;43683;48.650;9.290;2023-03-01T01:18:01;17.35;;;9.32;;
57856;SDS011;43683;48.650;9.290;2023-03-01T01:20:27;16.75;;;8.70;;
57856;SDS011;43683;48.650;9.290;2023-03-01T01:22:53;18.13;;;9.27;;
57856;SDS011;43683;48.650;9.290;2023-03-01T01:25:18;16.30;;;9.93;;
57856;SDS011;43683;48.650;9.290;2023-03-01T01:27:44;13.15;;;8.70;;
57856;SDS011;43683;48.650;9.290;2023-03-01T01:30:10;14.30;;;8.02;;
57856;SDS011;43683;48.650;9.290;2023-03-01T01:32:36;15.20;;;8.40;;
57856;SDS011;43683;48.650;9.290;2023-03-01T01:35:01;14.50;;;8.63;;
57856;SDS011;43683;48.650;9.290;2023-03-01T01:37:27;17.45;;;8.90;;
57856;SDS011;43683;48.650;9.290;2023-03-01T01:39:56;13.52;;;8.27;;
57856;SDS011;43683;48.650;9.290;2023-03-01T01:42:23;18.33;;;8.50;;
57856;SDS011;43683;48.650;9.290;2023-03-01T01:45:15;16.92;;;8.98;;
57856;SDS011;43683;48.650;9.290;2023-03-01T01:47:51;17.67;;;9.18;;
57856;SDS011;43683;48.650;9.290;2023-03-01T01:50:19;14.07;;;8.25;;
57856;SDS011;43683;48.650;9.290;2023-03-01T01:52:44;14.98;;;8.10;;
57856;SDS011;43683;48.650;9.290;2023-03-01T01:55:14;15.95;;;9.20;;
57856;SDS011;43683;48.650;9.290;2023-03-01T01:57:46;14.45;;;8.57;;
57856;SDS011;43683;48.650;9.290;2023-03-01T02:00:17;13.73;;;7.88;;
57856;SDS011;43683;48.650;9.290;2023-03-01T02:02:49;14.75;;;8.85;;
57856;SDS011;43683;48.650;9.290;2023-03-01T02:05:34;16.45;;;9.13;;
57856;SDS011;43683;48.650;9.290;2023-03-01T02:08:04;14.38;;;9.02;;
57856;SDS011;43683;48.650;9.290;2023-03-01T02:10:32;15.32;;;8.88;;
57856;SDS011;43683;48.650;9.290;2023-03-01T02:12:59;15.98;;;8.82;;
57856;SDS011;43683;48.650;9.290;2023-03-01T02:15:26;14.77;;;8.18;;
57856;SDS011;43683;48.650;9.290;2023-03-01T02:17:52;14.45;;;8.25;;
57856;SDS011;43683;48.650;9.290;2023-03-01T02:20:23;17.27;;;8.32;;
57856;SDS011;43683;48.650;9.290;2023-03-01T02:22:53;12.95;;;8.07;;
57856;SDS011;43683;48.650;9.290;2023-03-01T02:25:22;17.23;;;8.75;;
57856;SDS011;43683;48.650;9.290;2023-03-01T02:30:38;16.45;;;8.90;;
57856;SDS011;43683;48.650;9.290;2023-03-01T02:33:25;18.23;;;9.35;;
57856;SDS011;43683;48.650;9.290;2023-03-01T02:35:51;14.77;;;8.27;;
57856;SDS011;43683;48.650;9.290;2023-03-01T02:38:19;20.55;;;9.60;;
57856;SDS011;43683;48.650;9.290;2023-03-01T02:40:45;15.70;;;8.20;;
57856;SDS011;43683;48.650;9.290;2023-03-01T02:43:12;15.30;;;9.68;;
57856;SDS011;43683;48.650;9.290;2023-03-01T02:45:42;15.90;;;8.88;;
57856;SDS011;43683;48.650;9.290;2023-03-01T02:48:13;15.75;;;10.05;;
57856;SDS011;43683;48.650;9.290;2023-03-01T02:51:02;17.75;;;9.20;;
57856;SDS011;43683;48.650;9.290;2023-03-01T02:56:04;14.98;;;8.98;;
57856;SDS011;43683;48.650;9.290;2023-03-01T02:58:30;15.40;;;8.80;;
57856;SDS011;43683;48.650;9.290;2023-03-01T03:00:55;15.88;;;9.13;;
57856;SDS011;43683;48.650;9.290;2023-03-01T03:03:21;14.95;;;8.70;;
57856;SDS011;43683;48.650;9.290;2023-03-01T03:05:47;16.20;;;9.00;;
57856;SDS011;43683;48.650;9.290;2023-03-01T03:08:13;16.77;;;9.23;;
57856;SDS011;43683;48.650;9.290;2023-03-01T03:10:41;18.45;;;9.38;;
57856;SDS011;43683;48.650;9.290;2023-03-01T03:13:14;16.87;;;8.47;;
57856;SDS011;43683;48.650;9.290;2023-03-01T03:15:41;18.70;;;10.15;;
57856;SDS011;43683;48.650;9.290;2023-03-01T03:20:39;13.82;;;8.40;;
57856;SDS011;43683;48.650;9.290;2023-03-01T03:23:06;14.43;;;8.63;;
57856;SDS011;43683;48.650;9.290;2023-03-01T03:25:31;13.70;;;9.23;;
57856;SDS011;43683;48.650;9.290;2023-03-01T03:27:57;17.40;;;9.57;;
57856;SDS011;43683;48.650;9.290;2023-03-01T03:30:24;17.77;;;10.15;;
57856;SDS011;43683;48.650;9.290;2023-03-01T03:32:52;16.17;;;8.98;;
57856;SDS011;43683;48.650;9.290;2023-03-01T03:35:19;19.00;;;9.68;;
57856;SDS011;43683;48.650;9.290;2023-03-01T03:37:44;19.43;;;9.20;;
57856;SDS011;43683;48.650;9.290;2023-03-01T03:40:36;18.42;;;9.75;;
57856;SDS011;43683;48.650;9.290;2023-03-01T03:43:03;17.92;;;8.85;;
57856;SDS011;43683;48.650;9.290;2023-03-01T03:45:30;14.45;;;8.95;;
57856;SDS011;43683;48.650;9.290;2023-03-01T03:50:24;15.57;;;8.63;;
57856;SDS011;43683;48.650;9.290;2023-03-01T03:52:49;18.08;;;9.73;;
57856;SDS011;43683;48.650;9.290;2023-03-01T03:55:15;18.70;;;10.13;;
57856;SDS011;43683;48.650;9.290;2023-03-01T03:57:44;14.07;;;8.32;;
57856;SDS011;43683;48.650;9.290;2023-03-01T04:00:16;17.63;;;9.85;;
57856;SDS011;43683;48.650;9.290;2023-03-01T04:02:44;14.48;;;8.85;;
57856;SDS011;43683;48.650;9.290;2023-03-01T04:05:11;19.23;;;9.65;;
57856;SDS011;43683;48.650;9.290;2023-03-01T04:07:39;17.88;;;9.65;;
57856;SDS011;43683;48.650;9.290;2023-03-01T04:10:06;18.10;;;9.55;;
57856;SDS011;43683;48.650;9.290;2023-03-01T04:12:34;18.80;;;9.68;;
57856;SDS011;43683;48.650;9.290;2023-03-01T04:15:00;16.77;;;9.60;;
57856;SDS011;43683;48.650;9.290;2023-03-01T04:17:33;18.00;;;9.52;;
57856;SDS011;43683;48.650;9.290;2023-03-01T04:19:59;18.95;;;9.25;;
57856;SDS011;43683;48.650;9.290;2023-03-01T04:22:25;16.38;;;9.30;;
57856;SDS011;43683;48.650;9.290;2023-03-01T04:24:54;15.07;;;9.45;;
57856;SDS011;43683;48.650;9.290;2023-03-01T04:27:20;16.27;;;10.18;;
57856;SDS011;43683;48.650;9.290;2023-03-01T04:29:45;14.70;;;9.30;;
57856;SDS011;43683;48.650;9.290;2023-03-01T04:32:11;16.58;;;9.35;;
57856;SDS011;43683;48.650;9.290;2023-03-01T04:34:38;17.95;;;10.10;;
57856;SDS011;43683;48.650;9.290;2023-03-01T04:37:04;14.48;;;9.43;;
57856;SDS011;43683;48.650;9.290;2023-03-01T04:39:29;18.98;;;10.63;;
57856;SDS011;43683;48.650;9.290;2023-03-01T04:41:55;18.48;;;10.75;;
57856;SDS011;43683;48.650;9.290;2023-03-01T04:44:20;17.52;;;10.13;;
57856;SDS011;43683;48.650;9.290;2023-03-01T04:46:48;16.98;;;8.73;;
57856;SDS011;43683;48.650;9.290;2023-03-01T04:49:14;15.80;;;8.82;;
57856;SDS011;43683;48.650;9.290;2023-03-01T04:51:40;19.42;;;10.27;;
57856;SDS011;43683;48.650;9.290;2023-03-01T04:54:06;17.65;;;8.95;;
57856;SDS011;43683;48.650;9.290;2023-03-01T04:56:33;18.73;;;10.32;;
57856;SDS011;43683;48.650;9.290;2023-03-01T04:58:59;19.00;;;10.57;;
57856;SDS011;43683;48.650;9.290;2023-03-01T05:01:25;19.20;;;10.68;;
57856;SDS011;43683;48.650;9.290;2023-03-01T05:03:51;18.20;;;10.13;;
57856;SDS011;43683;48.650;9.290;2023-03-01T05:06:17;19.27;;;10.00;;
57856;SDS011;43683;48.650;9.290;2023-03-01T05:08:44;13.93;;;9.23;;
57856;SDS011;43683;48.650;9.290;2023-03-01T05:11:10;22.58;;;9.98;;
57856;SDS011;43683;48.650;9.290;2023-03-01T05:13:36;18.45;;;10.23;;
57856;SDS011;43683;48.650;9.290;2023-03-01T05:16:03;17.20;;;10.50;;
57856;SDS011;43683;48.650;9.290;2023-03-01T05:18:31;18.05;;;9.65;;
57856;SDS011;43683;48.650;9.290;2023-03-01T05:21:02;18.50;;;10.23;;
57856;SDS011;43683;48.650;9.290;2023-03-01T05:23:33;18.50;;;10.90;;
57856;SDS011;43683;48.650;9.290;2023-03-01T05:25:59;17.35;;;9.30;;
57856;SDS011;43683;48.650;9.290;2023-03-01T05:28:27;26.15;;;10.85;;
57856;SDS011;43683;48.650;9.290;2023-03-01T05:30:53;16.90;;;10.68;;
57856;SDS011;43683;48.650;9.290;2023-03-01T05:33:19;21.00;;;10.80;;
57856;SDS011;43683;48.650;9.290;2023-03-01T05:35:46;17.92;;;9.55;;
57856;SDS011;43683;48.650;9.290;2023-03-01T05:38:13;19.23;;;10.10;;
57856;SDS011;43683;48.650;9.290;2023-03-01T05:40:40;17.52;;;9.82;;
57856;SDS011;43683;48.650;9.290;2023-03-01T05:43:06;19.50;;;10.02;;
57856;SDS011;43683;48.650;9.290;2023-03-01T05:45:32;16.42;;;9.45;;
57856;SDS011;43683;48.650;9.290;2023-03-01T05:48:00;18.95;;;10.48;;
57856;SDS011;43683;48.650;9.290;2023-03-01T05:50:27;18.02;;;10.85;;
57856;SDS011;43683;48.650;9.290;2023-03-01T05:55:23;21.00;;;11.13;;
57856;SDS011;43683;48.650;9.290;2023-03-01T05:57:49;23.45;;;10.48;;
57856;SDS011;43683;48.650;9.290;2023-03-01T06:00:15;19.33;;;9.73;;
57856;SDS011;43683;48.650;9.290;2023-03-01T06:02:43;18.00;;;11.40;;
57856;SDS011;43683;48.650;9.290;2023-03-01T06:05:09;19.95;;;9.93;;
57856;SDS011;43683;48.650;9.290;2023-03-01T06:07:35;18.33;;;10.25;;
57856;SDS011;43683;48.650;9.290;2023-03-01T06:10:02;16.05;;;8.68;;
57856;SDS011;43683;48.650;9.290;2023-03-01T06:12:35;15.55;;;9.60;;
57856;SDS011;43683;48.650;9.290;2023-03-01T06:15:02;20.25;;;10.35;;
57856;SDS011;43683;48.650;9.290;2023-03-01T06:17:30;18.35;;;10.35;;
57856;SDS011;43683;48.650;9.290;2023-03-01T06:20:05;18.13;;;10.73;;
57856;SDS011;43683;48.650;9.290;2023-03-01T06:22:36;19.52;;;10.40;;
57856;SDS011;43683;48.650;9.290;2023-03-01T06:25:02;18.95;;;11.05;;
57856;SDS011;43683;48.650;9.290;2023-03-01T06:27:28;20.02;;;10.68;;
57856;SDS011;43683;48.650;9.290;2023-03-01T06:29:53;20.40;;;10.00;;
57856;SDS011;43683;48.650;9.290;2023-03-01T06:32:19;18.70;;;10.82;;
57856;SDS011;43683;48.650;9.290;2023-03-01T06:34:44;18.02;;;10.25;;
57856;SDS011;43683;48.650;9.290;2023-03-01T06:37:10;19.38;;;11.20;;
57856;SDS011;43683;48.650;9.290;2023-03-01T06:39:35;19.85;;;10.70;;
57856;SDS011;43683;48.650;9.290;2023-03-01T06:42:01;18.63;;;10.48;;
57856;SDS011;43683;48.650;9.290;2023-03-01T06:44:27;18.98;;;10.73;;
57856;SDS011;43683;48.650;9.290;2023-03-01T06:46:52;17.67;;;10.45;;
57856;SDS011;43683;48.650;9.290;2023-03-01T06:49:20;20.27;;;10.48;;
57856;SDS011;43683;48.650;9.290;2023-03-01T06:51:46;18.58;;;11.13;;
57856;SDS011;43683;48.650;9.290;2023-03-01T06:54:12;19.92;;;10.40;;
57856;SDS011;43683;48.650;9.290;2023-03-01T06:56:38;20.98;;;11.68;;
57856;SDS011;43683;48.650;9.290;2023-03-01T06:59:04;17.80;;;8.98;;
57856;SDS011;43683;48.650;9.290;2023-03-01T07:01:30;20.55;;;11.32;;
57856;SDS011;43683;48.650;9.290;2023-03-01T07:03:56;19.40;;;10.30;;
57856;SDS011;43683;48.650;9.290;2023-03-01T07:06:22;20.23;;;10.63;;
57856;SDS011;43683;48.650;9.290;2023-03-01T07:08:48;18.58;;;10.38;;
57856;SDS011;43683;48.650;9.290;2023-03-01T07:11:13;19.77;;;11.20;;
57856;SDS011;43683;48.650;9.290;2023-03-01T07:13:39;22.17;;;11.32;;
57856;SDS011;43683;48.650;9.290;2023-03-01T07:16:05;22.15;;;10.63;;
57856;SDS011;43683;48.650;9.290;2023-03-01T07:18:31;21.50;;;10.40;;
57856;SDS011;43683;48.650;9.290;2023-03-01T07:20:56;17.10;;;9.20;;
57856;SDS011;43683;48.650;9.290;2023-03-01T07:23:22;19.92;;;10.85;;
57856;SDS011;43683;48.650;9.290;2023-03-01T07:25:54;18.90;;;9.70;;
57856;SDS011;43683;48.650;9.290;2023-03-01T07:28:20;18.92;;;10.93;;
57856;SDS011;43683;48.650;9.290;2023-03-01T07:30:47;23.50;;;11.23;;
57856;SDS011;43683;48.650;9.290;2023-03-01T07:33:12;19.13;;;10.60;;
57856;SDS011;43683;48.650;9.290;2023-03-01T07:35:38;17.35;;;10.70;;
57856;SDS011;43683;48.650;9.290;2023-03-01T07:38:03;21.30;;;10.57;;
57856;SDS011;43683;48.650;9.290;2023-03-01T07:40:29;20.55;;;11.07;;
57856;SDS011;43683;48.650;9.290;2023-03-01T07:42:55;18.30;;;10.30;;
57856;SDS011;43683;48.650;9.290;2023-03-01T07:45:21;17.70;;;10.02;;
57856;SDS011;43683;48.650;9.290;2023-03-01T07:47:47;17.33;;;10.40;;
57856;SDS011;43683;48.650;9.290;2023-03-01T07:50:12;16.05;;;10.20;;
57856;SDS011;43683;48.650;9.290;2023-03-01T07:52:38;17.30;;;10.00;;
57856;SDS011;43683;48.650;9.290;2023-03-01T07:55:04;17.70;;;9.63;;
57856;SDS011;43683;48.650;9.290;2023-03-01T07:57:30;17.42;;;9.50;;
57856;SDS011;43683;48.650;9.290;2023-03-01T07:59:56;19.23;;;10.35;;
57856;SDS011;43683;48.650;9.290;2023-03-01T08:02:21;19.73;;;10.35;;
57856;SDS011;43683;48.650;9.290;2023-03-01T08:04:47;16.45;;;9.98;;
57856;SDS011;43683;48.650;9.290;2023-03-01T08:07:12;19.00;;;9.85;;
57856;SDS011;43683;48.650;9.290;2023-03-01T08:09:38;16.73;;;10.38;;
57856;SDS011;43683;48.650;9.290;2023-03-01T08:12:04;20.02;;;10.82;;
57856;SDS011;43683;48.650;9.290;2023-03-01T08:14:31;15.80;;;10.02;;
57856;SDS011;43683;48.650;9.290;2023-03-01T08:16:57;18.77;;;11.15;;
57856;SDS011;43683;48.650;9.290;2023-03-01T08:19:27;20.55;;;11.43;;
57856;SDS011;43683;48.650;9.290;2023-03-01T08:21:54;19.45;;;10.25;;
57856;SDS011;43683;48.650;9.290;2023-03-01T08:24:19;16.00;;;10.27;;
57856;SDS011;43683;48.650;9.290;2023-03-01T08:29:11;18.35;;;9.60;;
57856;SDS011;43683;48.650;9.290;2023-03-01T08:31:38;19.73;;;11.43;;
57856;SDS011;43683;48.650;9.290;2023-03-01T08:34:06;19.35;;;9.98;;
57856;SDS011;43683;48.650;9.290;2023-03-01T08:36:37;16.42;;;8.32;;
57856;SDS011;43683;48.650;9.290;2023-03-01T08:39:05;17.52;;;9.52;;
57856;SDS011;43683;48.650;9.290;2023-03-01T08:41:31;16.85;;;8.57;;
57856;SDS011;43683;48.650;9.290;2023-03-01T08:43:57;20.80;;;10.32;;
57856;SDS011;43683;48.650;9.290;2023-03-01T08:46:31;16.25;;;9.73;;
57856;SDS011;43683;48.650;9.290;2023-03-01T08:48:58;16.65;;;9.60;;
57856;SDS011;43683;48.650;9.290;2023-03-01T08:51:24;20.75;;;10.40;;
57856;SDS011;43683;48.650;9.290;2023-03-01T08:53:50;18.50;;;9.35;;
57856;SDS011;43683;48.650;9.290;2023-03-01T08:56:16;21.90;;;10.63;;
57856;SDS011;43683;48.650;9.290;2023-03-01T08:58:44;20.13;;;11.03;;
57856;SDS011;43683;48.650;9.290;2023-03-01T09:01:11;17.25;;;9.63;;
57856;SDS011;43683;48.650;9.290;2023-03-01T09:03:37;17.88;;;10.13;;
57856;SDS011;43683;48.650;9.290;2023-03-01T09:06:03;19.48;;;10.75;;
57856;SDS011;43683;48.650;9.290;2023-03-01T09:08:30;16.07;;;9.17;;
57856;SDS011;43683;48.650;9.290;2023-03-01T09:11:00;17.00;;;9.93;;
57856;SDS011;43683;48.650;9.290;2023-03-01T09:13:33;15.55;;;8.60;;
57856;SDS011;43683;48.650;9.290;2023-03-01T09:16:00;15.50;;;10.27;;
57856;SDS011;43683;48.650;9.290;2023-03-01T09:18:27;17.92;;;10.90;;
57856;SDS011;43683;48.650;9.290;2023-03-01T09:20:53;17.38;;;10.35;;
57856;SDS011;43683;48.650;9.290;2023-03-01T09:23:25;16.13;;;9.43;;
57856;SDS011;43683;48.650;9.290;2023-03-01T09:25:50;19.80;;;9.82;;
57856;SDS011;43683;48.650;9.290;2023-03-01T09:28:17;17.98;;;10.95;;
57856;SDS011;43683;48.650;9.290;2023-03-01T09:30:43;16.95;;;10.60;;
57856;SDS011;43683;48.650;9.290;2023-03-01T09:33:08;18.55;;;10.55;;
57856;SDS011;43683;48.650;9.290;2023-03-01T09:35:39;19.63;;;10.63;;
57856;SDS011;43683;48.650;9.290;2023-03-01T09:38:10;19.00;;;10.57;;
57856;SDS011;43683;48.650;9.290;2023-03-01T09:40:36;17.95;;;10.25;;
57856;SDS011;43683;48.650;9.290;2023-03-01T09:46:10;19.25;;;9.95;;
57856;SDS011;43683;48.650;9.290;2023-03-01T09:48:42;19.67;;;10.93;;
57856;SDS011;43683;48.650;9.290;2023-03-01T09:51:32;14.93;;;9.48;;
57856;SDS011;43683;48.650;9.290;2023-03-01T09:53:58;16.35;;;9.98;;
57856;SDS011;43683;48.650;9.290;2023-03-01T09:56:30;17.05;;;9.00;;
57856;SDS011;43683;48.650;9.290;2023-03-01T10:04:45;17.33;;;9.15;;
57856;SDS011;43683;48.650;9.290;2023-03-01T10:09:57;16.70;;;9.25;;
57856;SDS011;43683;48.650;9.290;2023-03-01T10:12:26;18.58;;;9.93;;
57856;SDS011;43683;48.650;9.290;2023-03-01T10:15:15;17.95;;;9.73;;
57856;SDS011;43683;48.650;9.290;2023-03-01T10:20:21;15.55;;;9.82;;
57856;SDS011;43683;48.650;9.290;2023-03-01T10:22:49;15.07;;;10.10;;
57856;SDS011;43683;48.650;9.290;2023-03-01T10:28:09;16.15;;;9.52;;
57856;SDS011;43683;48.650;9.290;2023-03-01T10:30:37;16.45;;;11.38;;
57856;SDS011;43683;48.650;9.290;2023-03-01T10:33:23;16.75;;;9.68;;
57856;SDS011;43683;48.650;9.290;2023-03-01T10:35:56;16.98;;;9.65;;
57856;SDS011;43683;48.650;9.290;2023-03-01T10:38:21;17.27;;;10.00;;
57856;SDS011;43683;48.650;9.290;2023-03-01T10:40:51;18.15;;;10.60;;
57856;SDS011;43683;48.650;9.290;2023-03-01T10:43:24;18.02;;;10.25;;
57856;SDS011;43683;48.650;9.290;2023-03-01T10:48:19;17.48;;;8.77;;
57856;SDS011;43683;48.650;9.290;2023-03-01T10:50:50;12.77;;;8.25;;
57856;SDS011;43683;48.650;9.290;2023-03-01T10:53:24;13.15;;;8.00;;
57856;SDS011;43683;48.650;9.290;2023-03-01T10:58:29;16.85;;;9.40;;
57856;SDS011;43683;48.650;9.290;2023-03-01T11:01:04;11.93;;;7.83;;
57856;SDS011;43683;48.650;9.290;2023-03-01T11:03:41;15.55;;;9.05;;
57856;SDS011;43683;48.650;9.290;2023-03-01T11:08:42;18.55;;;9.52;;
57856;SDS011;43683;48.650;9.290;2023-03-01T11:17:11;16.20;;;9.75;;
57856;SDS011;43683;48.650;9.290;2023-03-01T11:20:24;14.80;;;9.02;;
57856;SDS011;43683;48.650;9.290;2023-03-01T11:22:56;18.15;;;9.25;;
57856;SDS011;43683;48.650;9.290;2023-03-01T11:25:27;12.88;;;7.50;;
57856;SDS011;43683;48.650;9.290;2023-03-01T11:27:56;14.18;;;8.77;;
57856;SDS011;43683;48.650;9.290;2023-03-01T11:30:28;13.18;;;8.30;;
57856;SDS011;43683;48.650;9.290;2023-03-01T11:35:57;16.90;;;8.82;;
57856;SDS011;43683;48.650;9.290;2023-03-01T11:38:29;15.10;;;8.18;;
57856;SDS011;43683;48.650;9.290;2023-03-01T11:41:06;14.48;;;7.78;;
57856;SDS011;43683;48.650;9.290;2023-03-01T12:16:23;15.20;;;8.95;;
57856;SDS011;43683;48.650;9.290;2023-03-01T12:24:50;14.35;;;7.35;;
57856;SDS011;43683;48.650;9.290;2023-03-01T12:27:43;13.55;;;7.90;;
57856;SDS011;43683;48.650;9.290;2023-03-01T12:30:34;14.80;;;8.07;;
57856;SDS011;43683;48.650;9.290;2023-03-01T12:35:54;15.93;;;8.50;;
57856;SDS011;43683;48.650;9.290;2023-03-01T12:47:00;13.15;;;8.32;;
57856;SDS011;43683;48.650;9.290;2023-03-01T12:49:51;9.93;;;6.07;;
57856;SDS011;43683;48.650;9.290;2023-03-01T12:52:35;17.67;;;9.27;;
57856;SDS011;43683;48.650;9.290;2023-03-01T12:55:15;13.75;;;8.18;;
57856;SDS011;43683;48.650;9.290;2023-03-01T12:58:39;14.43;;;8.43;;
57856;SDS011;43683;48.650;9.290;2023-03-01T13:04:01;13.07;;;8.23;;
57856;SDS011;43683;48.650;9.290;2023-03-01T13:17:48;14.70;;;8.18;;
57856;SDS011;43683;48.650;9.290;2023-03-01T13:20:21;15.07;;;8.20;;
57856;SDS011;43683;48.650;9.290;2023-03-01T13:23:04;16.05;;;8.63;;
57856;SDS011;43683;48.650;9.290;2023-03-01T13:25:33;13.10;;;8.45;;
57856;SDS011;43683;48.650;9.290;2023-03-01T13:35:53;11.85;;;7.90;;
57856;SDS011;43683;48.650;9.290;2023-03-01T13:41:13;15.05;;;7.72;;
57856;SDS011;43683;48.650;9.290;2023-03-01T13:44:01;11.35;;;6.32;;
57856;SDS011;43683;48.650;9.290;2023-03-01T13:46:48;14.48;;;7.70;;
57856;SDS011;43683;48.650;9.290;2023-03-01T13:51:46;13.20;;;8.27;;
57856;SDS011;43683;48.650;9.290;2023-03-01T13:54:12;12.50;;;7.70;;
57856;SDS011;43683;48.650;9.290;2023-03-01T13:56:40;13.50;;;7.90;;
57856;SDS011;43683;48.650;9.290;2023-03-01T13:59:12;15.30;;;8.57;;
57856;SDS011;43683;48.650;9.290;2023-03-01T14:01:39;13.55;;;7.65;;
57856;SDS011;43683;48.650;9.290;2023-03-01T14:04:18;15.05;;;8.57;;
57856;SDS011;43683;48.650;9.290;2023-03-01T14:06:50;15.15;;;8.18;;
57856;SDS011;43683;48.650;9.290;2023-03-01T14:09:20;13.23;;;7.72;;
57856;SDS011;43683;48.650;9.290;2023-03-01T14:11:59;14.10;;;8.40;;
57856;SDS011;43683;48.650;9.290;2023-03-01T14:14:48;13.52;;;7.72;;
57856;SDS011;43683;48.650;9.290;2023-03-01T14:20:19;11.60;;;7.28;;
57856;SDS011;43683;48.650;9.290;2023-03-01T14:22:52;11.45;;;7.00;;
57856;SDS011;43683;48.650;9.290;2023-03-01T14:30:44;13.10;;;7.23;;
57856;SDS011;43683;48.650;9.290;2023-03-01T14:33:25;14.15;;;7.30;;
57856;SDS011;43683;48.650;9.290;2023-03-01T14:38:29;13.38;;;8.00;;
57856;SDS011;43683;48.650;9.290;2023-03-01T14:41:01;11.90;;;6.65;;
57856;SDS011;43683;48.650;9.290;2023-03-01T14:43:33;13.77;;;8.07;;
57856;SDS011;43683;48.650;9.290;2023-03-01T14:46:00;11.57;;;7.18;;
57856;SDS011;43683;48.650;9.290;2023-03-01T14:48:26;13.73;;;8.07;;
57856;SDS011;43683;48.650;9.290;2023-03-01T14:50:52;13.88;;;7.30;;
57856;SDS011;43683;48.650;9.290;2023-03-01T14:55:47;14.45;;;8.50;;
57856;SDS011;43683;48.650;9.290;2023-03-01T14:58:19;12.10;;;7.70;;
57856;SDS011;43683;48.650;9.290;2023-03-01T15:00:49;14.45;;;7.85;;
57856;SDS011;43683;48.650;9.290;2023-03-01T15:06:04;13.57;;;7.60;;
57856;SDS011;43683;48.650;9.290;2023-03-01T15:08:31;12.55;;;7.50;;
57856;SDS011;43683;48.650;9.290;2023-03-01T15:13:41;15.30;;;8.38;;
57856;SDS011;43683;48.650;9.290;2023-03-01T15:16:12;11.55;;;6.63;;
57856;SDS011;43683;48.650;9.290;2023-03-01T15:18:47;14.02;;;8.32;;
57856;SDS011;43683;48.650;9.290;2023-03-01T15:21:18;16.15;;;8.48;;
57856;SDS011;43683;48.650;9.290;2023-03-01T15:24:06;13.88;;;8.15;;
57856;SDS011;43683;48.650;9.290;2023-03-01T15:26:51;14.32;;;7.68;;
57856;SDS011;43683;48.650;9.290;2023-03-01T15:29:21;12.40;;;7.38;;
57856;SDS011;43683;48.650;9.290;2023-03-01T15:34:29;14.73;;;7.68;;
57856;SDS011;43683;48.650;9.290;2023-03-01T15:37:03;15.73;;;7.70;;
57856;SDS011;43683;48.650;9.290;2023-03-01T15:45:06;13.52;;;7.82;;
57856;SDS011;43683;48.650;9.290;2023-03-01T15:47:33;15.52;;;8.30;;
57856;SDS011;43683;48.650;9.290;2023-03-01T15:50:00;15.20;;;8.50;;
57856;SDS011;43683;48.650;9.290;2023-03-01T15:52:28;12.27;;;7.22;;
57856;SDS011;43683;48.650;9.290;2023-03-01T15:55:02;14.98;;;8.10;;
57856;SDS011;43683;48.650;9.290;2023-03-01T15:57:30;13.93;;;7.32;;
57856;SDS011;43683;48.650;9.290;2023-03-01T15:59:55;14.40;;;7.95;;
57856;SDS011;43683;48.650;9.290;2023-03-01T16:02:22;13.57;;;7.47;;
57856;SDS011;43683;48.650;9.290;2023-03-01T16:04:48;11.60;;;6.20;;
57856;SDS011;43683;48.650;9.290;2023-03-01T16:07:14;11.77;;;6.05;;
57856;SDS011;43683;48.650;9.290;2023-03-01T16:09:40;15.27;;;8.85;;
57856;SDS011;43683;48.650;9.290;2023-03-01T16:12:08;16.15;;;8.30;;
57856;SDS011;43683;48.650;9.290;2023-03-01T16:14:38;15.63;;;8.25;;
57856;SDS011;43683;48.650;9.290;2023-03-01T16:17:04;15.95;;;8.27;;
57856;SDS011;43683;48.650;9.290;2023-03-01T16:19:30;14.20;;;7.60;;
57856;SDS011;43683;48.650;9.290;2023-03-01T16:21:55;14.27;;;7.55;;
57856;SDS011;43683;48.650;9.290;2023-03-01T16:24:21;12.65;;;7.47;;
57856;SDS011;43683;48.650;9.290;2023-03-01T16:26:46;16.33;;;8.32;;
57856;SDS011;43683;48.650;9.290;2023-03-01T16:29:12;15.57;;;8.10;;
57856;SDS011;43683;48.650;9.290;2023-03-01T16:31:37;9.95;;;5.95;;
57856;SDS011;43683;48.650;9.290;2023-03-01T16:34:03;15.65;;;8.02;;
57856;SDS011;43683;48.650;9.290;2023-03-01T16:36:29;13.80;;;7.78;;
57856;SDS011;43683;48.650;9.290;2023-03-01T16:38:55;17.95;;;8.18;;
57856;SDS011;43683;48.650;9.290;2023-03-01T16:41:23;13.57;;;7.07;;
57856;SDS011;43683;48.650;9.290;2023-03-01T16:43:49;14.48;;;8.23;;
57856;SDS011;43683;48.650;9.290;2023-03-01T16:46:20;15.95;;;7.85;;
57856;SDS011;43683;48.650;9.290;2023-03-01T16:48:47;14.30;;;7.65;;
57856;SDS011;43683;48.650;9.290;2023-03-01T16:51:14;15.57;;;8.68;;
57856;SDS011;43683;48.650;9.290;2023-03-01T16:53:40;15.18;;;7.72;;
57856;SDS011;43683;48.650;9.290;2023-03-01T16:56:08;15.15;;;8.45;;
57856;SDS011;43683;48.650;9.290;2023-03-01T16:58:36;17.88;;;9.80;;
57856;SDS011;43683;48.650;9.290;2023-03-01T17:01:10;16.88;;;9.63;;
57856;SDS011;43683;48.650;9.290;2023-03-01T17:03:44;15.77;;;8.73;;
57856;SDS011;43683;48.650;9.290;2023-03-01T17:06:12;17.98;;;9.77;;
57856;SDS011;43683;48.650;9.290;2023-03-01T17:08:39;25.17;;;14.45;;
57856;SDS011;43683;48.650;9.290;2023-03-01T17:11:05;22.52;;;14.65;;
57856;SDS011;43683;48.650;9.290;2023-03-01T17:13:36;43.75;;;21.08;;
57856;SDS011;43683;48.650;9.290;2023-03-01T17:16:03;33.23;;;17.93;;